Time;durP1;ratioP1;P1;durP2;ratioP2;P2;SDS_P1;SDS_P2;PMS_P1;PMS_P2;Temp;Humidity;BMP_temperature;BMP_pressure;BME280_temperature;BME280_humidity;BME280_pressure;Samples;Min_cycle;Max_cycle;Signal;HPM_P1;HPM_P2
2022/05/10 00:01:00;;;;;;;12.37;11.10;;;14.90;99.90;;;;;;5053330;28;20654;-66
2022/05/10 00:03:32;;;;;;;12.30;11.10;;;14.90;99.90;;;;;;5053208;28;20254;-66
2022/05/10 00:05:58;;;;;;;12.50;11.40;;;14.80;99.90;;;;;;5051311;28;20233;-66
2022/05/10 00:08:23;;;;;;;13.07;11.93;;;14.80;99.90;;;;;;5051183;28;20586;-67
2022/05/10 00:10:49;;;;;;;12.97;11.73;;;14.70;99.90;;;;;;5052029;28;20226;-67
2022/05/10 00:13:15;;;;;;;11.97;10.97;;;14.80;99.90;;;;;;5053090;28;20268;-67
2022/05/10 00:15:42;;;;;;;12.93;11.27;;;14.80;99.90;;;;;;5052709;28;20183;-67
2022/05/10 00:18:14;;;;;;;13.20;11.80;;;14.80;99.90;;;;;;5053012;28;20198;-67
2022/05/10 00:20:41;;;;;;;12.13;11.03;;;14.80;99.90;;;;;;5051362;28;20203;-67
2022/05/10 00:23:07;;;;;;;13.10;11.70;;;14.70;99.90;;;;;;5053099;28;20232;-67
2022/05/10 00:25:33;;;;;;;12.70;11.50;;;14.70;99.90;;;;;;5051181;28;20186;-67
2022/05/10 00:27:59;;;;;;;12.07;10.97;;;14.70;99.90;;;;;;5053032;28;20186;-67
2022/05/10 00:30:25;;;;;;;12.83;11.63;;;14.80;99.90;;;;;;5052465;28;20206;-67
2022/05/10 00:32:51;;;;;;;13.13;12.03;;;14.80;99.90;;;;;;5052689;28;20276;-67
2022/05/10 00:35:24;;;;;;;13.63;12.33;;;14.80;99.90;;;;;;5051185;28;20644;-67
2022/05/10 00:37:52;;;;;;;13.00;11.87;;;14.80;99.90;;;;;;5052607;28;20175;-67
2022/05/10 00:40:22;;;;;;;13.47;12.10;;;14.70;99.90;;;;;;5052442;28;20219;-67
2022/05/10 00:42:53;;;;;;;13.97;12.40;;;14.80;99.90;;;;;;5052466;28;20187;-67
2022/05/10 00:45:26;;;;;;;12.87;11.17;;;14.80;99.90;;;;;;5051059;28;20182;-67
2022/05/10 00:48:06;;;;;;;12.00;10.97;;;14.80;99.90;;;;;;5052580;28;20182;-67
2022/05/10 00:50:50;;;;;;;14.10;12.77;;;14.90;99.90;;;;;;5054389;28;20257;-67
2022/05/10 00:53:27;;;;;;;12.77;11.57;;;14.80;99.90;;;;;;5054504;28;20205;-67
2022/05/10 00:55:59;;;;;;;15.20;12.60;;;14.80;99.90;;;;;;5054594;28;20200;-67
2022/05/10 00:58:50;;;;;;;13.03;11.87;;;14.80;99.90;;;;;;5054092;28;20183;-67
2022/05/10 01:01:34;;;;;;;13.20;12.10;;;14.90;99.90;;;;;;5054587;28;20174;-67
2022/05/10 01:04:13;;;;;;;12.23;10.70;;;14.90;99.90;;;;;;5054001;28;20186;-67
2022/05/10 01:06:59;;;;;;;13.67;12.30;;;14.90;99.90;;;;;;5054687;28;20171;-67
2022/05/10 01:10:05;;;;;;;14.17;12.60;;;14.80;99.90;;;;;;5053757;28;20233;-67
2022/05/10 01:12:45;;;;;;;13.07;11.93;;;14.80;99.90;;;;;;5051370;28;20219;-67
2022/05/10 01:15:25;;;;;;;13.07;11.83;;;14.90;99.90;;;;;;5052047;28;20179;-67
2022/05/10 01:17:56;;;;;;;12.10;11.00;;;14.90;99.90;;;;;;5051787;28;20182;-67
2022/05/10 01:20:36;;;;;;;13.90;12.53;;;14.80;99.90;;;;;;5051566;28;20187;-67
2022/05/10 01:23:01;;;;;;;15.03;12.10;;;14.70;99.90;;;;;;5052056;28;20183;-67
2022/05/10 01:25:51;;;;;;;13.57;12.17;;;14.70;99.90;;;;;;5051205;28;20175;-67
2022/05/10 01:28:41;;;;;;;14.23;12.10;;;14.70;99.90;;;;;;5050509;28;20551;-67
2022/05/10 01:31:14;;;;;;;15.77;12.47;;;14.60;99.90;;;;;;5051324;28;20206;-67
2022/05/10 01:33:47;;;;;;;13.90;12.60;;;14.60;99.90;;;;;;5050573;28;20268;-67
2022/05/10 01:36:48;;;;;;;13.07;11.73;;;14.60;99.90;;;;;;5050967;28;20532;-67
2022/05/10 01:39:23;;;;;;;13.10;12.00;;;14.50;99.90;;;;;;5039947;28;20221;-67
2022/05/10 01:41:58;;;;;;;13.57;11.67;;;14.50;99.90;;;;;;5050191;28;20249;-67
2022/05/10 01:45:00;;;;;;;12.27;11.20;;;14.50;99.90;;;;;;5051460;28;20198;-67
2022/05/10 01:47:44;;;;;;;15.20;12.60;;;14.50;99.90;;;;;;5050428;28;20182;-67
2022/05/10 01:50:21;;;;;;;16.93;11.87;;;14.50;99.90;;;;;;5051292;28;20206;-67
2022/05/10 01:53:05;;;;;;;14.20;10.93;;;14.40;99.90;;;;;;5051760;28;20206;-67
2022/05/10 01:55:32;;;;;;;12.20;11.10;;;14.30;99.90;;;;;;5051053;28;20182;-67
2022/05/10 01:58:10;;;;;;;13.20;11.77;;;14.30;99.90;;;;;;5051652;28;20255;-67
2022/05/10 02:00:38;;;;;;;15.93;11.90;;;14.30;99.90;;;;;;5051148;28;20293;-67
2022/05/10 02:03:34;;;;;;;13.23;11.80;;;14.30;99.90;;;;;;5050955;28;20183;-67
2022/05/10 02:06:24;;;;;;;12.73;11.57;;;14.30;99.90;;;;;;5044171;28;20195;-67
2022/05/10 02:08:55;;;;;;;13.70;12.30;;;14.30;99.90;;;;;;5051037;28;20191;-67
2022/05/10 02:11:22;;;;;;;13.00;11.70;;;14.20;99.90;;;;;;5051017;28;20182;-67
2022/05/10 02:14:09;;;;;;;13.83;12.50;;;14.20;99.90;;;;;;5051402;28;20213;-67
2022/05/10 02:17:07;;;;;;;13.00;11.80;;;14.10;99.90;;;;;;5049543;28;20710;-67
2022/05/10 02:19:42;;;;;;;11.73;10.73;;;14.10;99.90;;;;;;5051090;28;20221;-67
2022/05/10 02:22:14;;;;;;;13.80;12.60;;;14.10;99.90;;;;;;5050901;28;20178;-67
2022/05/10 02:24:54;;;;;;;13.33;12.03;;;14.00;99.90;;;;;;5050737;28;20179;-67
2022/05/10 02:27:24;;;;;;;13.37;11.97;;;14.00;99.90;;;;;;5051099;28;20175;-67
2022/05/10 02:30:04;;;;;;;13.73;12.33;;;14.00;99.90;;;;;;5050006;28;20201;-67
2022/05/10 02:33:06;;;;;;;13.53;12.23;;;13.90;99.90;;;;;;5054767;28;20541;-67
2022/05/10 02:35:39;;;;;;;14.00;12.60;;;13.90;99.90;;;;;;5054414;28;20257;-67
2022/05/10 02:38:08;;;;;;;13.57;11.97;;;13.90;99.90;;;;;;5054971;28;20546;-67
2022/05/10 02:40:33;;;;;;;12.47;11.40;;;13.90;99.90;;;;;;5054378;28;20217;-67
2022/05/10 02:43:00;;;;;;;15.07;12.37;;;13.90;99.90;;;;;;5055060;28;20520;-67
2022/05/10 02:45:26;;;;;;;13.73;12.40;;;13.90;99.90;;;;;;5054247;28;20486;-67
2022/05/10 02:47:52;;;;;;;13.87;12.57;;;13.90;99.90;;;;;;5054635;28;20244;-67
2022/05/10 02:50:29;;;;;;;14.27;12.87;;;13.80;99.90;;;;;;5053869;28;20693;-67
2022/05/10 02:52:55;;;;;;;13.23;12.03;;;13.70;99.90;;;;;;5054524;28;21834;-66
2022/05/10 02:55:24;;;;;;;12.83;11.73;;;13.80;99.90;;;;;;5054104;28;20171;-67
2022/05/10 02:57:52;;;;;;;13.90;12.50;;;13.70;99.90;;;;;;5054224;28;20175;-67
2022/05/10 03:00:20;;;;;;;13.43;12.23;;;13.70;99.90;;;;;;5052735;28;20195;-67
2022/05/10 03:02:49;;;;;;;13.73;12.43;;;13.70;99.90;;;;;;5054345;28;20640;-67
2022/05/10 03:05:15;;;;;;;13.27;12.07;;;13.70;99.90;;;;;;5049404;28;20229;-67
2022/05/10 03:07:40;;;;;;;13.87;12.77;;;13.60;99.90;;;;;;5040406;28;20741;-67
2022/05/10 03:10:07;;;;;;;14.37;12.93;;;13.60;99.90;;;;;;5052958;28;20289;-66
2022/05/10 03:12:33;;;;;;;15.10;12.97;;;13.60;99.90;;;;;;5053896;28;20661;-67
2022/05/10 03:14:59;;;;;;;13.53;12.13;;;13.50;99.90;;;;;;5052477;28;20175;-66
2022/05/10 03:17:26;;;;;;;14.77;13.40;;;13.50;99.90;;;;;;5052543;28;20178;-67
2022/05/10 03:19:52;;;;;;;14.73;13.43;;;13.40;99.90;;;;;;5054362;28;20656;-67
2022/05/10 03:22:17;;;;;;;14.90;13.50;;;13.50;99.90;;;;;;5053751;28;20197;-66
2022/05/10 03:24:43;;;;;;;14.20;13.00;;;13.40;99.90;;;;;;5054068;28;20636;-67
2022/05/10 03:27:10;;;;;;;17.10;14.03;;;13.30;99.90;;;;;;5053889;28;20174;-67
2022/05/10 03:29:38;;;;;;;14.97;13.47;;;13.30;99.90;;;;;;5053756;28;20190;-67
2022/05/10 03:32:04;;;;;;;14.50;13.03;;;13.30;99.90;;;;;;5052267;28;20171;-67
2022/05/10 03:37:14;;;;;;;14.10;12.53;;;13.20;99.90;;;;;;5053732;28;20558;-67
2022/05/10 03:39:39;;;;;;;14.37;13.07;;;13.20;99.90;;;;;;5080072;22;20218;-63
2022/05/10 03:42:06;;;;;;;13.97;12.70;;;13.30;99.90;;;;;;5071888;28;20734;-64
2022/05/10 03:44:32;;;;;;;15.50;13.90;;;13.30;99.90;;;;;;5073295;28;20613;-64
2022/05/10 03:46:58;;;;;;;14.50;13.17;;;13.30;99.90;;;;;;5062201;28;20175;-64
2022/05/10 03:49:23;;;;;;;14.63;13.33;;;13.30;99.90;;;;;;5056250;28;20659;-63
2022/05/10 03:51:49;;;;;;;15.50;14.10;;;13.30;99.90;;;;;;5082329;28;20623;-64
2022/05/10 03:54:15;;;;;;;14.13;12.83;;;13.30;99.90;;;;;;5093343;28;20255;-64
2022/05/10 03:56:40;;;;;;;16.20;14.60;;;13.30;99.90;;;;;;5085628;28;20174;-63
2022/05/10 03:59:06;;;;;;;15.57;14.20;;;13.30;99.90;;;;;;5072042;28;20174;-64
2022/05/10 04:01:32;;;;;;;15.00;13.70;;;13.40;99.90;;;;;;5073912;28;20174;-64
2022/05/10 04:03:57;;;;;;;13.70;12.03;;;13.40;99.90;;;;;;5072346;28;20174;-64
2022/05/10 04:06:23;;;;;;;16.60;15.27;;;13.40;99.90;;;;;;5076208;28;20642;-64
2022/05/10 04:08:49;;;;;;;16.10;14.77;;;13.40;99.90;;;;;;5093395;28;20182;-64
2022/05/10 04:11:15;;;;;;;13.00;11.77;;;13.40;99.90;;;;;;5090977;28;20200;-64
2022/05/10 04:13:42;;;;;;;13.20;11.87;;;13.40;99.90;;;;;;5071482;28;20568;-64
2022/05/10 04:16:08;;;;;;;14.23;12.80;;;13.40;99.90;;;;;;5084610;28;20176;-64
2022/05/10 04:18:34;;;;;;;13.57;12.37;;;13.50;99.90;;;;;;5092834;28;20200;-64
2022/05/10 04:21:00;;;;;;;13.50;12.17;;;13.50;99.90;;;;;;5082419;28;20209;-64
2022/05/10 04:23:27;;;;;;;14.90;13.40;;;13.60;99.90;;;;;;5072710;28;20178;-64
2022/05/10 04:25:52;;;;;;;13.37;12.07;;;13.60;99.90;;;;;;5081183;28;20184;-64
2022/05/10 04:28:18;;;;;;;14.30;13.10;;;13.60;99.90;;;;;;5092725;28;20170;-63
2022/05/10 04:30:44;;;;;;;12.73;11.63;;;13.70;99.90;;;;;;5085374;28;20602;-64
2022/05/10 04:33:10;;;;;;;12.57;11.57;;;13.80;99.90;;;;;;5072617;28;20690;-64
2022/05/10 04:35:35;;;;;;;13.83;12.57;;;13.80;99.90;;;;;;5077282;28;20169;-64
2022/05/10 04:38:04;;;;;;;13.50;12.30;;;13.90;99.90;;;;;;5093058;28;20176;-64
2022/05/10 04:43:15;;;;;;;12.47;11.43;;;14.00;99.90;;;;;;5072461;28;20197;-64
2022/05/10 04:45:41;;;;;;;11.97;10.87;;;14.10;99.90;;;;;;5088771;28;20178;-64
2022/05/10 04:48:07;;;;;;;12.37;11.27;;;14.20;99.90;;;;;;5092633;28;20174;-64
2022/05/10 04:50:33;;;;;;;10.97;10.07;;;14.20;99.90;;;;;;5076830;28;20205;-65
2022/05/10 04:52:59;;;;;;;11.57;10.47;;;14.30;99.90;;;;;;5071910;28;20194;-65
2022/05/10 04:55:25;;;;;;;12.30;11.13;;;14.40;99.90;;;;;;5084861;28;20250;-64
2022/05/10 04:57:50;;;;;;;11.73;10.73;;;14.40;99.90;;;;;;5092422;28;20184;-64
2022/05/10 05:00:16;;;;;;;11.70;10.80;;;14.50;99.90;;;;;;5080451;28;20632;-64
2022/05/10 05:02:43;;;;;;;11.50;10.50;;;14.50;99.90;;;;;;5071733;28;20178;-64
2022/05/10 05:05:11;;;;;;;11.70;10.70;;;14.60;99.90;;;;;;5077312;28;20177;-65
2022/05/10 05:07:38;;;;;;;11.93;10.80;;;14.70;99.90;;;;;;5106161;28;20177;-64
2022/05/10 05:10:04;;;;;;;12.30;11.20;;;14.80;99.90;;;;;;5112426;28;20184;-64
2022/05/10 05:12:32;;;;;;;11.23;10.33;;;15.00;99.90;;;;;;5112089;28;20661;-65
2022/05/10 05:14:58;;;;;;;12.77;10.47;;;15.10;99.90;;;;;;5091971;28;20173;-65
2022/05/10 05:17:24;;;;;;;10.93;9.87;;;15.20;99.90;;;;;;5091943;28;20191;-65
2022/05/10 05:19:49;;;;;;;12.17;11.10;;;15.40;99.90;;;;;;5089896;28;20204;-65
2022/05/10 05:22:15;;;;;;;10.60;9.70;;;15.50;99.90;;;;;;5091800;28;20166;-64
2022/05/10 05:24:41;;;;;;;10.43;9.53;;;15.60;99.90;;;;;;5075917;28;20186;-65
2022/05/10 05:27:06;;;;;;;10.50;9.60;;;15.70;99.90;;;;;;5071563;28;20192;-65
2022/05/10 05:29:32;;;;;;;11.67;10.47;;;15.90;99.90;;;;;;5072506;28;20212;-65
2022/05/10 05:31:59;;;;;;;11.30;10.20;;;16.10;99.90;;;;;;5071494;28;20518;-65
2022/05/10 05:34:25;;;;;;;10.97;9.97;;;16.10;99.90;;;;;;5083158;28;20208;-65
2022/05/10 05:39:35;;;;;;;11.03;10.13;;;16.50;99.90;;;;;;5078480;28;20291;-64
2022/05/10 05:42:00;;;;;;;11.37;10.37;;;16.60;99.90;;;;;;5072118;28;20642;-65
2022/05/10 05:44:26;;;;;;;9.50;8.70;;;16.80;99.90;;;;;;5071271;28;20192;-65
2022/05/10 05:46:52;;;;;;;11.63;10.47;;;17.00;99.90;;;;;;5080612;28;20181;-64
2022/05/10 05:49:17;;;;;;;11.17;10.00;;;17.20;99.90;;;;;;5089779;28;20181;-65
2022/05/10 05:51:43;;;;;;;11.23;10.13;;;17.30;99.90;;;;;;5082783;28;20308;-65
2022/05/10 05:54:10;;;;;;;11.27;10.03;;;17.50;99.90;;;;;;5069706;28;20220;-64
2022/05/10 05:56:35;;;;;;;10.60;9.60;;;17.60;99.90;;;;;;5088707;28;20173;-64
2022/05/10 05:59:02;;;;;;;11.30;10.20;;;17.80;99.90;;;;;;5090307;28;20166;-65
2022/05/10 06:01:27;;;;;;;10.77;9.63;;;17.90;99.90;;;;;;5073289;28;20245;-65
2022/05/10 06:03:55;;;;;;;10.77;9.87;;;18.00;99.90;;;;;;5071285;28;20231;-65
2022/05/10 06:06:22;;;;;;;10.30;9.30;;;18.10;99.90;;;;;;5075038;28;20185;-64
2022/05/10 06:08:48;;;;;;;11.03;9.87;;;18.20;99.90;;;;;;5078976;28;20220;-64
2022/05/10 06:11:14;;;;;;;10.13;9.23;;;18.40;99.90;;;;;;5095296;28;20197;-64
2022/05/10 06:13:40;;;;;;;9.90;9.10;;;18.60;99.90;;;;;;5092827;28;20207;-65
2022/05/10 06:16:07;;;;;;;10.53;9.50;;;18.70;99.90;;;;;;5074922;28;20173;-64
2022/05/10 06:18:33;;;;;;;10.27;9.37;;;18.70;99.90;;;;;;5075276;28;20648;-65
2022/05/10 06:20:59;;;;;;;10.70;9.53;;;18.70;99.90;;;;;;5075671;28;20193;-64
2022/05/10 06:23:24;;;;;;;10.40;9.40;;;18.80;99.90;;;;;;5075040;28;20174;-64
2022/05/10 06:25:50;;;;;;;10.63;9.57;;;18.80;99.90;;;;;;5093603;28;20245;-64
2022/05/10 06:28:15;;;;;;;9.67;8.77;;;19.00;99.90;;;;;;5093417;28;20180;-65
2022/05/10 06:30:43;;;;;;;11.20;9.47;;;19.10;99.90;;;;;;5094974;28;20201;-64
2022/05/10 06:33:09;;;;;;;9.83;9.03;;;19.30;99.90;;;;;;5082282;28;20201;-64
2022/05/10 06:35:34;;;;;;;10.83;9.83;;;19.40;99.90;;;;;;5074584;28;20169;-64
2022/05/10 06:40:45;;;;;;;11.20;10.03;;;19.60;99.90;;;;;;5074586;28;20686;-64
2022/05/10 06:43:11;;;;;;;11.40;10.30;;;19.60;99.90;;;;;;5089338;28;20205;-64
2022/05/10 06:45:39;;;;;;;10.17;9.03;;;19.60;99.90;;;;;;5093491;28;20666;-65
2022/05/10 06:48:05;;;;;;;12.93;10.90;;;19.70;99.90;;;;;;5093307;28;20181;-64
2022/05/10 06:50:31;;;;;;;12.90;9.63;;;19.80;99.90;;;;;;5094579;28;20193;-64
2022/05/10 06:52:58;;;;;;;9.97;8.97;;;19.90;99.90;;;;;;5082968;28;20566;-65
2022/05/10 06:55:25;;;;;;;9.93;8.93;;;20.10;99.90;;;;;;5074327;28;20167;-65
2022/05/10 06:57:51;;;;;;;10.30;9.40;;;20.40;99.90;;;;;;5074887;28;20303;-65
2022/05/10 07:00:18;;;;;;;9.70;8.87;;;20.70;99.90;;;;;;5074211;28;20206;-65
2022/05/10 07:02:44;;;;;;;9.73;8.93;;;20.70;99.90;;;;;;5084257;28;20181;-65
2022/05/10 07:05:12;;;;;;;10.45;9.20;;;20.70;99.90;;;;;;5086813;28;20205;-66
2022/05/10 07:07:38;;;;;;;9.95;8.88;;;20.90;99.90;;;;;;5074646;28;20269;-65
2022/05/10 07:10:08;;;;;;;12.07;8.38;;;21.20;99.90;;;;;;5093438;28;20714;-64
2022/05/10 07:12:35;;;;;;;11.65;8.57;;;21.60;99.90;;;;;;5094129;28;20583;-65
2022/05/10 07:15:01;;;;;;;9.07;8.27;;;22.00;99.90;;;;;;5075242;28;20171;-65
2022/05/10 07:17:27;;;;;;;11.55;10.40;;;22.40;99.90;;;;;;5073844;28;20228;-65
2022/05/10 07:19:52;;;;;;;10.05;8.07;;;22.80;99.90;;;;;;5090264;28;20276;-65
2022/05/10 07:22:18;;;;;;;9.38;8.48;;;23.00;99.90;;;;;;5094056;28;20177;-65
2022/05/10 07:24:43;;;;;;;8.57;7.88;;;23.20;99.90;;;;;;5092544;28;20292;-65
2022/05/10 07:27:09;;;;;;;9.05;8.20;;;23.40;99.90;;;;;;5094105;28;20189;-65
2022/05/10 07:29:35;;;;;;;7.80;7.10;;;23.60;99.90;;;;;;5080380;28;20232;-65
2022/05/10 07:32:00;;;;;;;7.30;6.63;;;23.70;99.90;;;;;;5072492;28;20666;-65
2022/05/10 07:34:26;;;;;;;8.82;6.55;;;24.00;99.90;;;;;;5082047;28;20204;-66
2022/05/10 07:36:52;;;;;;;8.88;6.50;;;24.30;99.90;;;;;;5094134;28;20166;-65
2022/05/10 07:39:18;;;;;;;7.40;6.80;;;24.50;99.90;;;;;;5083792;28;20170;-65
2022/05/10 07:41:44;;;;;;;7.80;5.93;;;24.80;99.90;;;;;;5080715;28;20634;-65
2022/05/10 07:44:11;;;;;;;5.68;5.18;;;24.90;99.90;;;;;;5093845;28;20184;-65
2022/05/10 07:46:37;;;;;;;6.30;5.75;;;25.00;99.90;;;;;;5087079;28;20235;-65
2022/05/10 07:49:03;;;;;;;6.50;6.00;;;24.80;99.90;;;;;;5073561;28;20186;-65
2022/05/10 07:51:29;;;;;;;6.25;5.68;;;24.70;99.90;;;;;;5077326;28;20238;-65
2022/05/10 07:53:55;;;;;;;6.03;5.53;;;24.80;99.90;;;;;;5093516;28;20201;-65
2022/05/10 07:56:20;;;;;;;6.00;5.55;;;24.90;99.90;;;;;;5090571;28;20183;-65
2022/05/10 07:58:46;;;;;;;9.10;6.57;;;24.90;99.90;;;;;;5072845;28;20431;-65
2022/05/10 08:01:12;;;;;;;7.05;6.35;;;24.80;99.90;;;;;;5072877;28;20194;-66
2022/05/10 08:03:38;;;;;;;6.80;6.28;;;24.80;99.90;;;;;;5089431;28;20184;-65
2022/05/10 08:06:04;;;;;;;7.32;6.03;;;24.80;99.90;;;;;;5072838;28;20170;-65
2022/05/10 08:08:33;;;;;;;6.30;5.90;;;24.90;99.90;;;;;;5090740;28;20604;-65
2022/05/10 08:10:59;;;;;;;9.30;6.25;;;24.80;99.90;;;;;;5093255;28;20193;-65
2022/05/10 08:13:28;;;;;;;7.13;6.43;;;24.80;99.90;;;;;;5074619;28;20243;-65
2022/05/10 08:15:54;;;;;;;7.13;6.35;;;24.70;99.90;;;;;;5072648;28;20170;-65
2022/05/10 08:18:21;;;;;;;7.53;6.75;;;24.70;99.90;;;;;;5089414;28;20195;-65
2022/05/10 08:20:48;;;;;;;6.40;5.70;;;24.90;99.90;;;;;;5092466;28;20193;-65
2022/05/10 08:23:22;;;;;;;7.03;5.50;;;25.20;99.90;;;;;;5077164;28;20203;-65
2022/05/10 08:25:54;;;;;;;6.53;5.50;;;25.70;99.90;;;;;;5072354;28;20181;-65
2022/05/10 08:28:24;;;;;;;5.63;5.22;;;26.30;99.90;;;;;;5086696;28;20547;-66
2022/05/10 08:30:51;;;;;;;4.70;4.30;;;26.70;99.90;;;;;;5090994;28;20201;-66
2022/05/10 08:33:28;;;;;;;5.72;5.22;;;27.00;99.90;;;;;;5092535;28;20194;-65
2022/05/10 08:35:55;;;;;;;6.22;5.72;;;27.20;99.90;;;;;;5091007;28;20169;-66
2022/05/10 08:38:21;;;;;;;4.90;4.50;;;27.50;99.90;;;;;;5072213;28;20212;-66
2022/05/10 08:41:13;;;;;;;5.28;4.88;;;27.80;99.90;;;;;;5071536;28;20205;-65
2022/05/10 08:43:50;;;;;;;5.25;4.85;;;28.40;99.90;;;;;;5070571;28;20170;-65
2022/05/10 08:46:20;;;;;;;4.88;4.47;;;29.20;99.90;;;;;;5071986;28;20189;-66
2022/05/10 08:48:50;;;;;;;5.45;5.03;;;29.70;99.90;;;;;;5072302;28;20658;-65
2022/05/10 08:51:16;;;;;;;5.90;4.88;;;30.00;99.90;;;;;;5072074;28;20571;-65
2022/05/10 08:53:42;;;;;;;4.80;4.43;;;30.00;99.90;;;;;;5072229;28;20209;-65
2022/05/10 08:56:28;;;;;;;4.80;4.50;;;30.00;99.90;;;;;;5071118;28;20194;-66
2022/05/10 08:58:53;;;;;;;4.78;4.38;;;30.00;99.90;;;;;;5081945;28;20226;-65
2022/05/10 09:01:26;;;;;;;5.55;4.20;;;30.10;99.90;;;;;;5086912;28;20666;-65
2022/05/10 09:03:55;;;;;;;4.85;4.45;;;30.10;99.90;;;;;;5108324;28;20177;-65
2022/05/10 09:06:45;;;;;;;4.68;4.38;;;30.30;99.90;;;;;;5108739;28;20181;-66
2022/05/10 09:09:30;;;;;;;4.45;4.05;;;30.80;99.90;;;;;;5074975;28;20738;-66
2022/05/10 09:12:09;;;;;;;7.50;4.00;;;31.30;99.90;;;;;;5071985;28;20210;-65
2022/05/10 09:14:48;;;;;;;4.53;4.13;;;32.00;99.90;;;;;;5070924;28;20198;-65
2022/05/10 09:17:16;;;;;;;7.10;3.97;;;32.40;99.90;;;;;;5071674;28;20166;-66
2022/05/10 09:19:43;;;;;;;5.28;3.90;;;32.80;99.90;;;;;;5074712;28;20517;-65
2022/05/10 09:22:57;;;;;;;4.03;3.72;;;33.30;99.90;;;;;;5091632;28;20541;-66
2022/05/10 09:25:40;;;;;;;5.85;3.97;;;33.50;99.90;;;;;;5082778;28;20259;-65
2022/05/10 09:28:24;;;;;;;6.72;4.13;;;33.50;99.60;;;;;;5071562;28;20258;-65
2022/05/10 09:36:31;;;;;;;3.72;3.40;;;33.50;97.50;;;;;;5071762;28;20607;-65
2022/05/10 09:39:12;;;;;;;4.13;3.58;;;33.40;95.40;;;;;;5071088;28;20171;-65
2022/05/10 09:41:43;;;;;;;4.05;3.75;;;33.00;95.00;;;;;;5071524;28;20184;-65
2022/05/10 09:44:24;;;;;;;8.20;3.97;;;32.50;94.50;;;;;;5077105;28;20173;-66
2022/05/10 09:47:08;;;;;;;4.07;3.78;;;32.30;93.80;;;;;;5091327;28;20693;-66
2022/05/10 09:49:37;;;;;;;4.03;3.72;;;31.90;94.30;;;;;;5082550;28;20228;-67
2022/05/10 09:52:04;;;;;;;4.10;3.70;;;31.50;94.70;;;;;;5071334;28;20185;-65
2022/05/10 09:54:42;;;;;;;3.83;3.60;;;31.50;95.30;;;;;;5078095;28;20582;-66
2022/05/10 09:57:10;;;;;;;4.13;3.83;;;31.80;94.00;;;;;;5091262;28;20314;-67
2022/05/10 09:59:45;;;;;;;3.63;3.33;;;32.10;93.80;;;;;;5083003;28;20276;-66
2022/05/10 10:02:23;;;;;;;3.70;3.40;;;32.40;92.80;;;;;;5071151;28;20173;-65
2022/05/10 10:04:49;;;;;;;3.47;3.20;;;32.40;92.70;;;;;;5079859;28;20169;-65
2022/05/10 10:07:20;;;;;;;4.45;3.40;;;32.50;91.70;;;;;;5091073;28;20721;-64
2022/05/10 10:09:52;;;;;;;3.70;3.40;;;32.00;90.60;;;;;;5089615;28;20250;-66
2022/05/10 10:12:41;;;;;;;4.10;3.75;;;31.10;92.20;;;;;;5091263;28;20193;-66
2022/05/10 10:15:31;;;;;;;3.72;3.53;;;31.10;91.30;;;;;;5086749;28;20260;-65
2022/05/10 10:18:09;;;;;;;3.50;3.30;;;31.40;90.90;;;;;;5091267;28;20170;-65
2022/05/10 10:20:43;;;;;;;3.67;3.38;;;31.30;90.30;;;;;;5076677;28;20201;-67
2022/05/10 10:23:29;;;;;;;4.18;3.88;;;31.10;88.30;;;;;;5070977;28;20205;-65
2022/05/10 10:26:01;;;;;;;4.97;3.80;;;31.00;89.70;;;;;;5072563;28;20262;-67
2022/05/10 10:28:38;;;;;;;4.10;3.70;;;31.00;90.60;;;;;;5072008;28;20170;-67
2022/05/10 10:31:22;;;;;;;4.93;3.60;;;31.20;89.20;;;;;;5091076;28;20201;-65
2022/05/10 10:33:52;;;;;;;9.77;3.55;;;31.50;87.90;;;;;;5086754;28;20225;-66
2022/05/10 10:36:24;;;;;;;4.30;3.63;;;31.60;90.50;;;;;;5070490;28;20205;-65
2022/05/10 10:39:17;;;;;;;3.72;3.42;;;31.90;88.90;;;;;;5085758;28;20173;-65
2022/05/10 10:42:12;;;;;;;4.00;3.60;;;31.50;87.10;;;;;;5090838;28;20280;-66
2022/05/10 10:44:46;;;;;;;3.65;3.45;;;31.60;90.60;;;;;;5070318;28;20171;-66
2022/05/10 10:47:24;;;;;;;7.47;3.63;;;31.70;86.90;;;;;;5070880;28;20658;-66
2022/05/10 10:50:07;;;;;;;3.25;3.05;;;31.80;87.40;;;;;;5090998;28;20223;-66
2022/05/10 10:52:33;;;;;;;3.63;3.42;;;31.70;87.00;;;;;;5090782;28;20231;-66
2022/05/10 10:55:00;;;;;;;4.53;3.88;;;31.50;87.50;;;;;;5074158;28;20186;-66
2022/05/10 10:57:29;;;;;;;6.35;4.45;;;31.10;86.30;;;;;;5075115;28;20170;-66
2022/05/10 11:00:00;;;;;;;4.03;3.63;;;30.60;87.30;;;;;;5094603;28;20623;-66
2022/05/10 11:02:40;;;;;;;4.68;4.28;;;30.10;87.90;;;;;;5077576;28;20182;-66
2022/05/10 11:05:28;;;;;;;4.90;4.40;;;29.60;87.50;;;;;;5074259;28;20252;-66
2022/05/10 11:07:58;;;;;;;5.22;4.82;;;29.20;87.20;;;;;;5094124;28;20304;-67
2022/05/10 11:10:34;;;;;;;4.35;3.97;;;29.10;89.80;;;;;;5091866;28;20181;-66
2022/05/10 11:13:28;;;;;;;4.75;4.30;;;29.00;90.30;;;;;;5074207;28;20288;-67
2022/05/10 11:16:06;;;;;;;4.70;3.97;;;29.00;90.80;;;;;;5068595;28;20585;-67
2022/05/10 11:18:50;;;;;;;5.47;3.72;;;29.10;91.40;;;;;;5093828;28;20642;-63
2022/05/10 11:21:36;;;;;;;7.53;3.97;;;29.10;90.10;;;;;;5085628;28;20669;-67
2022/05/10 11:24:22;;;;;;;4.20;3.90;;;28.80;90.60;;;;;;5073946;28;20219;-67
2022/05/10 11:27:24;;;;;;;4.13;3.80;;;28.80;91.10;;;;;;5085147;28;20183;-67
2022/05/10 11:30:32;;;;;;;4.32;4.03;;;29.00;91.00;;;;;;5094237;28;20197;-66
2022/05/10 11:33:02;;;;;;;5.30;4.18;;;29.30;88.50;;;;;;5035508;28;20214;-66
2022/05/10 11:35:48;;;;;;;4.00;3.72;;;29.70;87.90;;;;;;5073243;28;20184;-65
2022/05/10 11:38:35;;;;;;;4.18;3.88;;;29.90;87.20;;;;;;5073586;28;20170;-66
2022/05/10 11:41:27;;;;;;;6.25;3.83;;;29.90;87.40;;;;;;5076348;28;20231;-66
2022/05/10 11:44:16;;;;;;;4.55;4.15;;;30.00;84.60;;;;;;5093408;28;20182;-66
2022/05/10 11:47:05;;;;;;;4.35;4.05;;;29.90;85.10;;;;;;5084798;28;20714;-65
2022/05/10 11:49:55;;;;;;;4.60;4.30;;;30.10;88.70;;;;;;5073340;28;20193;-66
2022/05/10 11:52:48;;;;;;;4.47;4.07;;;30.20;86.50;;;;;;5085987;28;20178;-66
2022/05/10 11:55:36;;;;;;;4.40;4.10;;;30.00;88.30;;;;;;5093567;28;20584;-65
2022/05/10 11:58:06;;;;;;;3.65;3.42;;;30.20;87.80;;;;;;5075378;28;20203;-66
2022/05/10 12:00:31;;;;;;;3.97;3.67;;;30.90;85.90;;;;;;5073068;28;20576;-67
2022/05/10 12:03:00;;;;;;;3.95;3.65;;;31.40;86.40;;;;;;5073272;28;20241;-66
2022/05/10 12:05:33;;;;;;;4.90;4.07;;;31.70;85.50;;;;;;5072681;28;20205;-66
2022/05/10 12:08:19;;;;;;;4.60;3.75;;;31.70;84.90;;;;;;5088822;28;20169;-66
2022/05/10 12:10:45;;;;;;;4.03;3.72;;;31.90;86.90;;;;;;5083405;28;20199;-66
2022/05/10 12:22:12;;;;;;;4.80;3.83;;;32.10;77.90;;;;;;5091999;28;20204;-67
2022/05/10 12:24:50;;;;;;;5.93;3.45;;;32.10;77.90;;;;;;5091845;28;20197;-68
2022/05/10 12:27:16;;;;;;;3.30;3.10;;;32.00;76.00;;;;;;5074839;28;20186;-66
2022/05/10 12:29:41;;;;;;;4.72;4.28;;;32.20;77.30;;;;;;5092115;28;20213;-66
2022/05/10 12:32:39;;;;;;;4.65;4.25;;;32.40;74.10;;;;;;5083677;28;20610;-65
2022/05/10 12:35:16;;;;;;;4.07;3.78;;;32.80;79.90;;;;;;5071794;28;20194;-67
2022/05/10 12:37:44;;;;;;;4.53;4.10;;;32.90;80.60;;;;;;5085387;28;20184;-66
2022/05/10 12:40:10;;;;;;;4.03;3.60;;;32.50;83.30;;;;;;5092749;28;20208;-67
2022/05/10 12:42:58;;;;;;;4.43;3.75;;;32.70;82.30;;;;;;5080760;28;20622;-65
2022/05/10 12:45:27;;;;;;;4.05;3.75;;;32.70;80.90;;;;;;5071957;28;20170;-67
2022/05/10 12:48:24;;;;;;;4.10;3.80;;;32.50;80.30;;;;;;5085607;28;20259;-67
2022/05/10 12:50:59;;;;;;;4.97;4.13;;;32.30;81.70;;;;;;5092215;28;20592;-67
2022/05/10 12:53:29;;;;;;;4.35;3.97;;;32.00;79.40;;;;;;5090753;28;20549;-66
2022/05/10 12:56:18;;;;;;;4.70;4.05;;;32.00;77.80;;;;;;5085407;28;20598;-66
2022/05/10 12:58:49;;;;;;;4.70;4.13;;;31.60;77.10;;;;;;5072094;28;20197;-67
2022/05/10 13:01:17;;;;;;;6.03;4.13;;;31.30;77.50;;;;;;5088537;28;20229;-66
2022/05/10 13:03:47;;;;;;;5.82;3.97;;;31.30;80.10;;;;;;5092356;28;20178;-67
2022/05/10 13:06:19;;;;;;;4.20;3.88;;;31.40;84.70;;;;;;5084229;28;20268;-66
2022/05/10 13:09:20;;;;;;;4.47;3.78;;;31.70;79.90;;;;;;5092182;28;20177;-66
2022/05/10 13:11:51;;;;;;;4.20;3.80;;;31.60;79.80;;;;;;5002217;28;20187;-67
2022/05/10 13:14:18;;;;;;;7.50;4.25;;;31.40;78.30;;;;;;5057617;28;20222;-67
2022/05/10 13:16:53;;;;;;;4.50;4.10;;;31.30;81.60;;;;;;5071573;28;20167;-66
2022/05/10 13:19:21;;;;;;;6.03;3.90;;;31.50;78.20;;;;;;5071729;28;20166;-66
2022/05/10 13:21:48;;;;;;;4.15;3.78;;;31.50;81.70;;;;;;5072355;28;20183;-66
2022/05/10 13:24:16;;;;;;;8.23;4.75;;;31.60;82.20;;;;;;5071010;28;20200;-66
2022/05/10 13:26:58;;;;;;;4.70;4.13;;;31.50;82.60;;;;;;5087742;28;20177;-66
2022/05/10 13:29:48;;;;;;;4.65;4.25;;;31.50;81.70;;;;;;5091919;28;20260;-66